sensor_id;sensor_type;location;lat;lon;timestamp;pressure;altitude;pressure_sealevel;temperature;humidity
63731;BME280;49747;51.334;6.830;2023-02-13T00:00:09;103188.00;;;11.92;76.41
63731;BME280;49747;51.334;6.830;2023-02-13T00:02:36;103187.97;;;11.94;76.30
63731;BME280;49747;51.334;6.830;2023-02-13T00:05:03;103184.34;;;11.95;76.60
63731;BME280;49747;51.334;6.830;2023-02-13T00:07:30;103172.16;;;11.89;76.64
63731;BME280;49747;51.334;6.830;2023-02-13T00:09:56;103186.09;;;11.96;76.30
63731;BME280;49747;51.334;6.830;2023-02-13T00:12:23;103186.03;;;11.97;76.18
63731;BME280;49747;51.334;6.830;2023-02-13T00:14:49;103179.88;;;11.95;76.33
63731;BME280;49747;51.334;6.830;2023-02-13T00:17:16;103180.66;;;11.99;75.65
63731;BME280;49747;51.334;6.830;2023-02-13T00:19:42;103171.72;;;12.00;76.17
63731;BME280;49747;51.334;6.830;2023-02-13T00:22:09;103173.59;;;11.98;75.37
63731;BME280;49747;51.334;6.830;2023-02-13T00:24:35;103152.63;;;11.89;75.49
63731;BME280;49747;51.334;6.830;2023-02-13T00:27:02;103170.00;;;11.99;75.58
63731;BME280;49747;51.334;6.830;2023-02-13T00:29:29;103170.97;;;11.96;75.38
63731;BME280;49747;51.334;6.830;2023-02-13T00:31:55;103169.34;;;11.92;75.17
63731;BME280;49747;51.334;6.830;2023-02-13T00:34:22;103162.28;;;11.91;74.88
63731;BME280;49747;51.334;6.830;2023-02-13T00:36:48;103157.78;;;11.93;75.06
63731;BME280;49747;51.334;6.830;2023-02-13T00:39:15;103161.44;;;11.91;75.07
63731;BME280;49747;51.334;6.830;2023-02-13T00:41:41;103155.13;;;11.93;74.81
63731;BME280;49747;51.334;6.830;2023-02-13T00:44:08;103156.19;;;11.89;74.88
63731;BME280;49747;51.334;6.830;2023-02-13T00:46:36;103159.81;;;11.87;75.09
63731;BME280;49747;51.334;6.830;2023-02-13T00:49:04;103157.16;;;11.87;74.81
63731;BME280;49747;51.334;6.830;2023-02-13T00:51:33;103165.16;;;11.87;74.70
63731;BME280;49747;51.334;6.830;2023-02-13T00:53:59;103154.50;;;11.87;75.01
63731;BME280;49747;51.334;6.830;2023-02-13T00:56:27;103160.75;;;11.86;74.74
63731;BME280;49747;51.334;6.830;2023-02-13T00:58:53;103164.22;;;11.88;75.16
63731;BME280;49747;51.334;6.830;2023-02-13T01:01:22;103165.06;;;11.88;75.11
63731;BME280;49747;51.334;6.830;2023-02-13T01:03:49;103164.16;;;11.89;74.94
63731;BME280;49747;51.334;6.830;2023-02-13T01:06:16;103158.84;;;11.89;74.86
63731;BME280;49747;51.334;6.830;2023-02-13T01:08:42;103162.38;;;11.90;75.00
63731;BME280;49747;51.334;6.830;2023-02-13T01:11:09;103158.88;;;11.88;74.54
63731;BME280;49747;51.334;6.830;2023-02-13T01:13:36;103161.44;;;11.91;74.76
63731;BME280;49747;51.334;6.830;2023-02-13T01:16:02;103168.47;;;11.92;74.72
63731;BME280;49747;51.334;6.830;2023-02-13T01:18:29;103162.38;;;11.90;74.79
63731;BME280;49747;51.334;6.830;2023-02-13T01:21:02;103161.44;;;11.91;74.70
63731;BME280;49747;51.334;6.830;2023-02-13T01:23:34;103161.50;;;11.89;74.55
63731;BME280;49747;51.334;6.830;2023-02-13T01:26:06;103154.41;;;11.88;74.91
63731;BME280;49747;51.334;6.830;2023-02-13T01:28:33;103159.72;;;11.90;74.83
63731;BME280;49747;51.334;6.830;2023-02-13T01:31:00;103160.59;;;11.89;74.76
63731;BME280;49747;51.334;6.830;2023-02-13T01:33:28;103156.19;;;11.89;74.35
63731;BME280;49747;51.334;6.830;2023-02-13T01:35:55;103161.44;;;11.91;74.53
63731;BME280;49747;51.334;6.830;2023-02-13T01:38:21;103157.91;;;11.90;74.68
63731;BME280;49747;51.334;6.830;2023-02-13T01:40:52;103153.38;;;11.92;74.35
63731;BME280;49747;51.334;6.830;2023-02-13T01:43:23;103151.72;;;11.90;74.41
63731;BME280;49747;51.334;6.830;2023-02-13T01:45:53;103144.81;;;11.84;74.14
63731;BME280;49747;51.334;6.830;2023-02-13T01:48:24;103145.78;;;11.81;74.03
63731;BME280;49747;51.334;6.830;2023-02-13T01:50:56;103150.97;;;11.86;74.05
63731;BME280;49747;51.334;6.830;2023-02-13T01:53:32;103151.91;;;11.85;74.42
63731;BME280;49747;51.334;6.830;2023-02-13T01:56:07;103150.25;;;11.81;74.21
63731;BME280;49747;51.334;6.830;2023-02-13T01:58:37;103147.50;;;11.82;74.41
63731;BME280;49747;51.334;6.830;2023-02-13T02:01:07;103142.09;;;11.86;74.36
63731;BME280;49747;51.334;6.830;2023-02-13T02:06:27;103138.63;;;11.83;74.21
63731;BME280;49747;51.334;6.830;2023-02-13T02:09:00;103137.75;;;11.83;74.27
63731;BME280;49747;51.334;6.830;2023-02-13T02:14:19;103142.19;;;11.82;74.04
63731;BME280;49747;51.334;6.830;2023-02-13T02:16:45;103140.50;;;11.80;74.38
63731;BME280;49747;51.334;6.830;2023-02-13T02:19:20;103137.84;;;11.80;74.44
63731;BME280;49747;51.334;6.830;2023-02-13T02:24:57;103145.81;;;11.80;73.96
63731;BME280;49747;51.334;6.830;2023-02-13T02:33:17;103146.75;;;11.79;74.30
63731;BME280;49747;51.334;6.830;2023-02-13T02:41:15;103147.75;;;11.76;74.24
63731;BME280;49747;51.334;6.830;2023-02-13T02:49:54;103140.78;;;11.72;74.15
63731;BME280;49747;51.334;6.830;2023-02-13T02:52:30;103135.47;;;11.72;73.71
63731;BME280;49747;51.334;6.830;2023-02-13T02:55:05;103138.13;;;11.72;74.06
63731;BME280;49747;51.334;6.830;2023-02-13T02:57:42;103142.59;;;11.72;73.98
63731;BME280;49747;51.334;6.830;2023-02-13T03:00:33;103139.13;;;11.70;73.95
63731;BME280;49747;51.334;6.830;2023-02-13T03:03:29;103138.22;;;11.71;74.27
63731;BME280;49747;51.334;6.830;2023-02-13T03:06:19;103140.78;;;11.72;73.98
63731;BME280;49747;51.334;6.830;2023-02-13T03:08:58;103139.06;;;11.71;74.33
63731;BME280;49747;51.334;6.830;2023-02-13T03:11:56;103133.75;;;11.71;73.88
63731;BME280;49747;51.334;6.830;2023-02-13T03:14:42;103143.47;;;11.72;74.08
63731;BME280;49747;51.334;6.830;2023-02-13T03:17:12;103138.28;;;11.69;74.41
63731;BME280;49747;51.334;6.830;2023-02-13T03:22:56;103138.13;;;11.72;74.20
63731;BME280;49747;51.334;6.830;2023-02-13T03:31:37;103120.78;;;11.62;74.08
63731;BME280;49747;51.334;6.830;2023-02-13T03:34:13;103139.81;;;11.75;74.12
63731;BME280;49747;51.334;6.830;2023-02-13T03:36:49;103133.66;;;11.73;73.80
63731;BME280;49747;51.334;6.830;2023-02-13T03:39:47;103130.09;;;11.74;74.01
63731;BME280;49747;51.334;6.830;2023-02-13T03:45:05;103132.94;;;11.69;74.54
63731;BME280;49747;51.334;6.830;2023-02-13T03:47:53;103135.63;;;11.69;74.17
63731;BME280;49747;51.334;6.830;2023-02-13T03:50:22;103130.28;;;11.69;74.47
63731;BME280;49747;51.334;6.830;2023-02-13T03:52:59;103141.72;;;11.71;74.48
63731;BME280;49747;51.334;6.830;2023-02-13T03:55:32;103146.13;;;11.72;74.34
63731;BME280;49747;51.334;6.830;2023-02-13T03:58:22;103143.41;;;11.74;74.47
63731;BME280;49747;51.334;6.830;2023-02-13T04:01:11;103144.31;;;11.73;74.32
63731;BME280;49747;51.334;6.830;2023-02-13T04:06:42;103143.75;;;11.65;74.71
63731;BME280;49747;51.334;6.830;2023-02-13T04:09:13;103134.28;;;11.57;74.69
63731;BME280;49747;51.334;6.830;2023-02-13T04:12:14;103149.81;;;11.68;74.69
63731;BME280;49747;51.334;6.830;2023-02-13T04:14:57;103148.84;;;11.71;74.57
63731;BME280;49747;51.334;6.830;2023-02-13T04:17:32;103145.38;;;11.69;74.86
63731;BME280;49747;51.334;6.830;2023-02-13T04:20:01;103137.56;;;11.64;74.55
63731;BME280;49747;51.334;6.830;2023-02-13T04:22:28;103144.66;;;11.65;74.89
63731;BME280;49747;51.334;6.830;2023-02-13T04:24:55;103140.22;;;11.64;74.76
63731;BME280;49747;51.334;6.830;2023-02-13T04:27:24;103134.97;;;11.63;74.91
63731;BME280;49747;51.334;6.830;2023-02-13T04:29:52;103141.03;;;11.66;74.98
63731;BME280;49747;51.334;6.830;2023-02-13T04:32:18;103143.72;;;11.66;75.00
63731;BME280;49747;51.334;6.830;2023-02-13T04:34:45;103134.72;;;11.69;74.86
63731;BME280;49747;51.334;6.830;2023-02-13T04:37:11;103142.66;;;11.70;74.64
63731;BME280;49747;51.334;6.830;2023-02-13T04:39:38;103139.94;;;11.72;74.42
63731;BME280;49747;51.334;6.830;2023-02-13T04:42:04;103136.34;;;11.73;74.58
63731;BME280;49747;51.334;6.830;2023-02-13T04:44:31;103139.75;;;11.76;74.84
63731;BME280;49747;51.334;6.830;2023-02-13T04:46:58;103136.28;;;11.74;74.83
63731;BME280;49747;51.334;6.830;2023-02-13T04:49:25;103138.03;;;11.75;74.41
63731;BME280;49747;51.334;6.830;2023-02-13T04:51:51;103142.41;;;11.76;74.73
63731;BME280;49747;51.334;6.830;2023-02-13T04:54:18;103145.06;;;11.76;74.79
63731;BME280;49747;51.334;6.830;2023-02-13T04:56:45;103136.19;;;11.77;74.35
63731;BME280;49747;51.334;6.830;2023-02-13T04:59:11;103139.63;;;11.79;74.63
63731;BME280;49747;51.334;6.830;2023-02-13T05:01:38;103139.59;;;11.81;74.40
63731;BME280;49747;51.334;6.830;2023-02-13T05:04:04;103140.50;;;11.80;74.37
63731;BME280;49747;51.334;6.830;2023-02-13T05:06:31;103133.28;;;11.83;74.49
63731;BME280;49747;51.334;6.830;2023-02-13T05:08:58;103130.66;;;11.82;74.12
63731;BME280;49747;51.334;6.830;2023-02-13T05:11:24;103130.63;;;11.83;73.93
63731;BME280;49747;51.334;6.830;2023-02-13T05:13:51;103131.31;;;11.89;73.94
63731;BME280;49747;51.334;6.830;2023-02-13T05:16:17;103125.25;;;11.85;73.85
63731;BME280;49747;51.334;6.830;2023-02-13T05:18:44;103136.53;;;11.92;73.95
63731;BME280;49747;51.334;6.830;2023-02-13T05:21:10;103132.06;;;11.92;74.16
63731;BME280;49747;51.334;6.830;2023-02-13T05:23:55;103135.72;;;11.90;73.94
63731;BME280;49747;51.334;6.830;2023-02-13T05:26:22;103135.72;;;11.90;73.80
63731;BME280;49747;51.334;6.830;2023-02-13T05:28:49;103125.13;;;11.88;73.44
63731;BME280;49747;51.334;6.830;2023-02-13T05:31:34;103128.66;;;11.89;73.68
63731;BME280;49747;51.334;6.830;2023-02-13T05:34:01;103129.53;;;11.89;73.71
63731;BME280;49747;51.334;6.830;2023-02-13T05:36:27;103134.91;;;11.88;73.77
63731;BME280;49747;51.334;6.830;2023-02-13T05:38:54;103126.06;;;11.87;73.57
63731;BME280;49747;51.334;6.830;2023-02-13T05:41:21;103130.53;;;11.87;73.71
63731;BME280;49747;51.334;6.830;2023-02-13T05:43:47;103133.19;;;11.87;73.44
63731;BME280;49747;51.334;6.830;2023-02-13T05:46:14;103125.25;;;11.85;73.47
63731;BME280;49747;51.334;6.830;2023-02-13T05:48:40;103108.72;;;11.75;73.50
63731;BME280;49747;51.334;6.830;2023-02-13T05:51:07;103127.00;;;11.86;73.20
63731;BME280;49747;51.334;6.830;2023-02-13T05:53:34;103133.97;;;11.89;72.92
63731;BME280;49747;51.334;6.830;2023-02-13T05:56:02;103127.00;;;11.86;73.37
63731;BME280;49747;51.334;6.830;2023-02-13T05:58:29;103133.19;;;11.87;73.04
63731;BME280;49747;51.334;6.830;2023-02-13T06:00:56;103125.19;;;11.87;73.26
63731;BME280;49747;51.334;6.830;2023-02-13T06:03:26;103114.69;;;11.82;73.13
63731;BME280;49747;51.334;6.830;2023-02-13T06:05:54;103118.19;;;11.84;73.08
63731;BME280;49747;51.334;6.830;2023-02-13T06:08:21;103115.50;;;11.84;72.90
63731;BME280;49747;51.334;6.830;2023-02-13T06:10:48;103117.41;;;11.80;72.92
63731;BME280;49747;51.334;6.830;2023-02-13T06:13:16;103120.81;;;11.86;72.93
63731;BME280;49747;51.334;6.830;2023-02-13T06:15:42;103123.50;;;11.84;72.96
63731;BME280;49747;51.334;6.830;2023-02-13T06:18:10;103112.06;;;11.80;73.08
63731;BME280;49747;51.334;6.830;2023-02-13T06:20:37;103113.88;;;11.80;72.85
63731;BME280;49747;51.334;6.830;2023-02-13T06:23:04;103111.34;;;11.77;72.76
63731;BME280;49747;51.334;6.830;2023-02-13T06:25:30;103115.63;;;11.81;72.75
63731;BME280;49747;51.334;6.830;2023-02-13T06:27:57;103115.94;;;11.73;72.76
63731;BME280;49747;51.334;6.830;2023-02-13T06:30:24;103114.81;;;11.79;72.57
63731;BME280;49747;51.334;6.830;2023-02-13T06:32:50;103117.78;;;11.24;74.12
63731;BME280;49747;51.334;6.830;2023-02-13T06:35:17;103100.44;;;10.64;76.48
63731;BME280;49747;51.334;6.830;2023-02-13T06:37:44;103112.47;;;10.21;78.50
63731;BME280;49747;51.334;6.830;2023-02-13T06:40:12;103119.19;;;10.33;78.66
63731;BME280;49747;51.334;6.830;2023-02-13T06:42:41;103104.91;;;9.81;80.30
63731;BME280;49747;51.334;6.830;2023-02-13T06:45:08;103110.16;;;9.54;82.20
63731;BME280;49747;51.334;6.830;2023-02-13T06:47:35;103108.88;;;9.38;82.94
63731;BME280;49747;51.334;6.830;2023-02-13T06:50:06;103114.41;;;9.60;81.95
63731;BME280;49747;51.334;6.830;2023-02-13T06:52:33;103121.06;;;9.14;84.48
63731;BME280;49747;51.334;6.830;2023-02-13T06:55:00;103111.91;;;8.93;85.53
63731;BME280;49747;51.334;6.830;2023-02-13T06:57:27;103102.53;;;9.12;85.21
63731;BME280;49747;51.334;6.830;2023-02-13T06:59:59;103096.06;;;9.23;84.54
63731;BME280;49747;51.334;6.830;2023-02-13T07:02:29;103107.53;;;9.23;84.35
63731;BME280;49747;51.334;6.830;2023-02-13T07:04:55;103113.03;;;8.84;86.55
63731;BME280;49747;51.334;6.830;2023-02-13T07:07:22;103116.94;;;8.71;87.81
63731;BME280;49747;51.334;6.830;2023-02-13T07:09:49;103111.66;;;8.70;87.80
63731;BME280;49747;51.334;6.830;2023-02-13T07:12:15;103113.28;;;8.75;87.33
63731;BME280;49747;51.334;6.830;2023-02-13T07:14:42;103110.72;;;8.72;87.52
63731;BME280;49747;51.334;6.830;2023-02-13T07:17:08;103111.22;;;8.86;87.10
63731;BME280;49747;51.334;6.830;2023-02-13T07:19:36;103117.91;;;9.00;86.48
63731;BME280;49747;51.334;6.830;2023-02-13T07:22:03;103125.81;;;9.34;84.37
63731;BME280;49747;51.334;6.830;2023-02-13T07:24:30;103112.47;;;9.06;85.82
63731;BME280;49747;51.334;6.830;2023-02-13T07:26:59;103126.09;;;9.23;84.78
63731;BME280;49747;51.334;6.830;2023-02-13T07:29:26;103119.22;;;9.18;85.13
63731;BME280;49747;51.334;6.830;2023-02-13T07:31:52;103123.59;;;9.19;85.50
63731;BME280;49747;51.334;6.830;2023-02-13T07:34:19;103119.38;;;9.41;84.00
63731;BME280;49747;51.334;6.830;2023-02-13T07:36:46;103130.03;;;9.08;85.47
63731;BME280;49747;51.334;6.830;2023-02-13T07:39:13;103120.50;;;9.01;85.52
63731;BME280;49747;51.334;6.830;2023-02-13T07:41:39;103134.72;;;9.31;84.53
63731;BME280;49747;51.334;6.830;2023-02-13T07:44:06;103132.47;;;10.34;79.96
63731;BME280;49747;51.334;6.830;2023-02-13T07:46:33;103134.63;;;10.22;79.23
63731;BME280;49747;51.334;6.830;2023-02-13T07:49:00;103123.16;;;11.46;74.78
63731;BME280;49747;51.334;6.830;2023-02-13T07:51:27;103139.13;;;12.37;70.61
63731;BME280;49747;51.334;6.830;2023-02-13T07:53:54;103135.63;;;12.57;68.63
63731;BME280;49747;51.334;6.830;2023-02-13T07:56:22;103134.31;;;13.28;66.66
63731;BME280;49747;51.334;6.830;2023-02-13T07:58:49;103131.72;;;13.84;64.52
63731;BME280;49747;51.334;6.830;2023-02-13T08:01:16;103139.03;;;13.61;64.04
63731;BME280;49747;51.334;6.830;2023-02-13T08:03:47;103143.09;;;12.49;67.67
63731;BME280;49747;51.334;6.830;2023-02-13T08:06:17;103146.88;;;11.29;72.07
63731;BME280;49747;51.334;6.830;2023-02-13T08:08:44;103145.59;;;11.16;73.97
63731;BME280;49747;51.334;6.830;2023-02-13T08:11:37;103148.84;;;10.74;75.08
63731;BME280;49747;51.334;6.830;2023-02-13T08:14:23;103145.28;;;9.92;78.99
63731;BME280;49747;51.334;6.830;2023-02-13T08:16:51;103146.59;;;10.35;77.81
63731;BME280;49747;51.334;6.830;2023-02-13T08:19:18;103153.47;;;10.12;78.74
63731;BME280;49747;51.334;6.830;2023-02-13T08:21:45;103140.06;;;11.22;75.78
63731;BME280;49747;51.334;6.830;2023-02-13T08:24:12;103147.13;;;12.15;71.32
63731;BME280;49747;51.334;6.830;2023-02-13T08:26:39;103153.28;;;12.60;68.20
63731;BME280;49747;51.334;6.830;2023-02-13T08:29:06;103144.16;;;13.85;64.00
63731;BME280;49747;51.334;6.830;2023-02-13T08:31:33;103139.44;;;14.79;59.99
63731;BME280;49747;51.334;6.830;2023-02-13T08:34:00;103147.00;;;14.71;59.18
63731;BME280;49747;51.334;6.830;2023-02-13T08:36:27;103137.63;;;15.95;56.08
63731;BME280;49747;51.334;6.830;2023-02-13T08:38:54;103140.69;;;16.95;53.03
63731;BME280;49747;51.334;6.830;2023-02-13T08:41:20;103144.66;;;17.04;52.75
63731;BME280;49747;51.334;6.830;2023-02-13T08:43:49;103130.75;;;16.97;52.27
63731;BME280;49747;51.334;6.830;2023-02-13T08:46:16;103147.09;;;16.48;52.68
63731;BME280;49747;51.334;6.830;2023-02-13T08:48:43;103142.56;;;17.23;51.16
63731;BME280;49747;51.334;6.830;2023-02-13T08:51:11;103139.50;;;17.44;49.60
63731;BME280;49747;51.334;6.830;2023-02-13T08:53:40;103137.38;;;18.32;48.54
63731;BME280;49747;51.334;6.830;2023-02-13T08:56:08;103124.34;;;18.26;47.61
63731;BME280;49747;51.334;6.830;2023-02-13T08:58:34;103124.81;;;18.85;45.96
63731;BME280;49747;51.334;6.830;2023-02-13T09:01:07;103124.97;;;18.69;46.30
63731;BME280;49747;51.334;6.830;2023-02-13T09:03:35;103123.84;;;19.24;45.18
63731;BME280;49747;51.334;6.830;2023-02-13T09:06:02;103137.72;;;19.31;45.30
63731;BME280;49747;51.334;6.830;2023-02-13T09:08:29;103141.19;;;19.33;44.53
63731;BME280;49747;51.334;6.830;2023-02-13T09:11:01;103134.00;;;19.83;43.47
63731;BME280;49747;51.334;6.830;2023-02-13T09:13:29;103137.28;;;19.37;43.84
63731;BME280;49747;51.334;6.830;2023-02-13T09:16:00;103126.50;;;20.58;42.01
63731;BME280;49747;51.334;6.830;2023-02-13T09:18:31;103132.59;;;20.84;41.55
63731;BME280;49747;51.334;6.830;2023-02-13T09:21:04;103138.88;;;20.26;42.38
63731;BME280;49747;51.334;6.830;2023-02-13T09:23:32;103134.16;;;21.45;40.63
63731;BME280;49747;51.334;6.830;2023-02-13T09:26:01;103136.06;;;21.87;39.38
63731;BME280;49747;51.334;6.830;2023-02-13T09:28:29;103142.97;;;20.66;40.73
63731;BME280;49747;51.334;6.830;2023-02-13T09:30:56;103139.94;;;20.82;40.74
63731;BME280;49747;51.334;6.830;2023-02-13T09:33:24;103148.41;;;20.78;40.17
63731;BME280;49747;51.334;6.830;2023-02-13T09:35:51;103139.41;;;21.57;39.66
63731;BME280;49747;51.334;6.830;2023-02-13T09:38:18;103132.94;;;22.03;38.81
63731;BME280;49747;51.334;6.830;2023-02-13T09:40:57;103134.31;;;22.62;37.46
63731;BME280;49747;51.334;6.830;2023-02-13T09:43:31;103135.09;;;22.53;37.36
63731;BME280;49747;51.334;6.830;2023-02-13T09:46:04;103141.13;;;22.56;36.80
63731;BME280;49747;51.334;6.830;2023-02-13T09:48:35;103134.78;;;22.67;36.97
63731;BME280;49747;51.334;6.830;2023-02-13T09:51:04;103142.47;;;22.30;37.25
63731;BME280;49747;51.334;6.830;2023-02-13T09:53:31;103135.59;;;21.71;38.05
63731;BME280;49747;51.334;6.830;2023-02-13T09:56:21;103152.28;;;20.51;39.95
63731;BME280;49747;51.334;6.830;2023-02-13T09:59:05;103150.59;;;20.13;41.21
63731;BME280;49747;51.334;6.830;2023-02-13T10:01:43;103143.16;;;22.43;40.11
63731;BME280;49747;51.334;6.830;2023-02-13T10:04:20;103145.56;;;22.25;38.35
63731;BME280;49747;51.334;6.830;2023-02-13T10:07:01;103143.53;;;22.06;38.69
63731;BME280;49747;51.334;6.830;2023-02-13T10:09:53;103146.53;;;21.70;38.86
63731;BME280;49747;51.334;6.830;2023-02-13T10:15:27;103153.69;;;19.21;43.39
63731;BME280;49747;51.334;6.830;2023-02-13T10:18:05;103157.69;;;19.15;43.20
63731;BME280;49747;51.334;6.830;2023-02-13T10:20:38;103160.88;;;18.82;43.73
63731;BME280;49747;51.334;6.830;2023-02-13T10:23:16;103161.22;;;18.51;44.43
63731;BME280;49747;51.334;6.830;2023-02-13T10:26:00;103155.22;;;17.79;45.96
63731;BME280;49747;51.334;6.830;2023-02-13T10:28:37;103154.91;;;17.83;46.01
63731;BME280;49747;51.334;6.830;2023-02-13T10:31:11;103159.22;;;18.00;46.01
63731;BME280;49747;51.334;6.830;2023-02-13T10:33:56;103154.28;;;17.80;46.13
63731;BME280;49747;51.334;6.830;2023-02-13T10:36:28;103162.91;;;17.56;46.44
63731;BME280;49747;51.334;6.830;2023-02-13T10:39:01;103157.09;;;17.91;46.71
63731;BME280;49747;51.334;6.830;2023-02-13T10:49:40;103155.44;;;17.33;47.40
63731;BME280;49747;51.334;6.830;2023-02-13T10:54:56;103146.97;;;17.53;46.95
63731;BME280;49747;51.334;6.830;2023-02-13T11:00:23;103137.16;;;17.66;48.11
63731;BME280;49747;51.334;6.830;2023-02-13T11:02:50;103138.59;;;17.58;47.75
63731;BME280;49747;51.334;6.830;2023-02-13T11:05:20;103135.44;;;16.94;48.35
63731;BME280;49747;51.334;6.830;2023-02-13T11:07:48;103132.28;;;17.02;48.28
63731;BME280;49747;51.334;6.830;2023-02-13T11:10:21;103128.09;;;17.12;48.13
63731;BME280;49747;51.334;6.830;2023-02-13T11:12:49;103121.03;;;16.95;49.20
63731;BME280;49747;51.334;6.830;2023-02-13T11:15:28;103126.16;;;16.99;48.37
63731;BME280;49747;51.334;6.830;2023-02-13T11:18:10;103113.47;;;17.02;48.99
63731;BME280;49747;51.334;6.830;2023-02-13T11:20:41;103111.69;;;16.72;49.53
63731;BME280;49747;51.334;6.830;2023-02-13T11:23:26;103114.81;;;16.80;49.62
63731;BME280;49747;51.334;6.830;2023-02-13T11:26:07;103089.97;;;16.77;49.49
63731;BME280;49747;51.334;6.830;2023-02-13T11:28:44;103100.22;;;16.54;49.04
63731;BME280;49747;51.334;6.830;2023-02-13T11:31:23;103099.59;;;16.05;50.46
63731;BME280;49747;51.334;6.830;2023-02-13T11:33:51;103100.44;;;16.05;50.72
63731;BME280;49747;51.334;6.830;2023-02-13T11:36:28;103099.00;;;15.68;51.70
63731;BME280;49747;51.334;6.830;2023-02-13T11:39:19;103102.72;;;15.97;52.72
63731;BME280;49747;51.334;6.830;2023-02-13T11:41:47;103088.41;;;16.12;52.56
63731;BME280;49747;51.334;6.830;2023-02-13T11:44:28;103101.84;;;15.81;51.59
63731;BME280;49747;51.334;6.830;2023-02-13T11:47:00;103085.56;;;15.84;52.44
63731;BME280;49747;51.334;6.830;2023-02-13T11:49:36;103087.16;;;15.23;53.14
63731;BME280;49747;51.334;6.830;2023-02-13T11:52:06;103092.22;;;15.45;54.05
63731;BME280;49747;51.334;6.830;2023-02-13T11:54:55;103084.94;;;15.63;53.31
63731;BME280;49747;51.334;6.830;2023-02-13T11:57:33;103076.88;;;15.80;53.57
63731;BME280;49747;51.334;6.830;2023-02-13T12:00:26;103085.25;;;15.90;53.57
63731;BME280;49747;51.334;6.830;2023-02-13T12:02:56;103069.69;;;15.96;52.08
63731;BME280;49747;51.334;6.830;2023-02-13T12:05:26;103072.69;;;15.90;51.66
63731;BME280;49747;51.334;6.830;2023-02-13T12:07:59;103068.22;;;15.75;51.46
63731;BME280;49747;51.334;6.830;2023-02-13T12:10:29;103071.94;;;15.72;52.58
63731;BME280;49747;51.334;6.830;2023-02-13T12:13:00;103055.41;;;15.33;51.75
63731;BME280;49747;51.334;6.830;2023-02-13T12:15:33;103066.28;;;15.61;52.38
63731;BME280;49747;51.334;6.830;2023-02-13T12:20:59;103056.88;;;15.54;51.55
63731;BME280;49747;51.334;6.830;2023-02-13T12:23:45;103054.56;;;15.48;51.70
63731;BME280;49747;51.334;6.830;2023-02-13T12:26:41;103060.50;;;15.53;53.54
63731;BME280;49747;51.334;6.830;2023-02-13T12:32:29;103038.84;;;14.93;52.33
63731;BME280;49747;51.334;6.830;2023-02-13T13:01:09;103021.50;;;15.32;53.52
63731;BME280;49747;51.334;6.830;2023-02-13T13:06:32;103023.06;;;15.20;53.30
63731;BME280;49747;51.334;6.830;2023-02-13T13:17:41;103007.44;;;15.44;53.71
63731;BME280;49747;51.334;6.830;2023-02-13T13:20:36;103006.06;;;15.37;53.33
63731;BME280;49747;51.334;6.830;2023-02-13T13:23:17;103000.00;;;15.17;52.62
63731;BME280;49747;51.334;6.830;2023-02-13T13:25:55;102999.16;;;15.33;52.88
63731;BME280;49747;51.334;6.830;2023-02-13T13:28:26;102995.16;;;15.24;52.25
63731;BME280;49747;51.334;6.830;2023-02-13T13:30:56;102995.44;;;15.35;52.33
63731;BME280;49747;51.334;6.830;2023-02-13T13:33:25;102994.72;;;15.32;53.27
63731;BME280;49747;51.334;6.830;2023-02-13T13:36:04;102990.06;;;15.35;52.52
63731;BME280;49747;51.334;6.830;2023-02-13T13:38:44;102984.22;;;15.44;52.57
63731;BME280;49747;51.334;6.830;2023-02-13T13:49:53;102968.03;;;15.46;52.27
63731;BME280;49747;51.334;6.830;2023-02-13T13:54:50;102975.66;;;15.38;51.23
63731;BME280;49747;51.334;6.830;2023-02-13T14:02:44;102963.72;;;15.27;52.11
63731;BME280;49747;51.334;6.830;2023-02-13T14:07:54;102960.44;;;15.22;52.05
63731;BME280;49747;51.334;6.830;2023-02-13T14:18:02;102939.88;;;15.07;52.08
63731;BME280;49747;51.334;6.830;2023-02-13T14:20:36;102947.91;;;15.23;51.81
63731;BME280;49747;51.334;6.830;2023-02-13T14:31:21;102948.56;;;15.12;52.47
63731;BME280;49747;51.334;6.830;2023-02-13T14:33:59;102942.84;;;15.18;53.10
63731;BME280;49747;51.334;6.830;2023-02-13T14:36:29;102942.13;;;15.15;52.23
63731;BME280;49747;51.334;6.830;2023-02-13T14:39:05;102930.56;;;15.14;51.98
63731;BME280;49747;51.334;6.830;2023-02-13T14:47:11;102930.41;;;15.17;53.15
63731;BME280;49747;51.334;6.830;2023-02-13T14:49:43;102935.59;;;15.20;52.22
63731;BME280;49747;51.334;6.830;2023-02-13T14:52:17;102936.09;;;15.27;52.04
63731;BME280;49747;51.334;6.830;2023-02-13T14:54:47;102944.97;;;15.27;52.08
63731;BME280;49747;51.334;6.830;2023-02-13T14:57:21;102931.25;;;15.18;52.11
63731;BME280;49747;51.334;6.830;2023-02-13T14:59:52;102926.59;;;15.21;52.13
63731;BME280;49747;51.334;6.830;2023-02-13T15:02:26;102928.69;;;15.16;52.17
63731;BME280;49747;51.334;6.830;2023-02-13T15:04:59;102932.13;;;15.02;52.03
63731;BME280;49747;51.334;6.830;2023-02-13T15:07:30;102937.56;;;15.01;52.30
63731;BME280;49747;51.334;6.830;2023-02-13T15:10:05;102927.91;;;14.98;52.14
63731;BME280;49747;51.334;6.830;2023-02-13T15:12:36;102920.72;;;14.99;53.04
63731;BME280;49747;51.334;6.830;2023-02-13T15:15:23;102925.91;;;15.02;52.96
63731;BME280;49747;51.334;6.830;2023-02-13T15:17:54;102913.31;;;15.04;53.18
63731;BME280;49747;51.334;6.830;2023-02-13T15:20:25;102931.00;;;15.07;52.97
63731;BME280;49747;51.334;6.830;2023-02-13T15:22:53;102924.03;;;15.04;53.26
63731;BME280;49747;51.334;6.830;2023-02-13T15:25:37;102912.84;;;14.96;52.75
63731;BME280;49747;51.334;6.830;2023-02-13T15:28:06;102917.44;;;14.94;53.11
63731;BME280;49747;51.334;6.830;2023-02-13T15:30:37;102920.88;;;14.96;52.71
63731;BME280;49747;51.334;6.830;2023-02-13T15:33:16;102912.38;;;15.05;52.90